createdAt,value
2016-05-18T00:00:05.650Z,11.85
2016-05-18T00:01:05.636Z,11.8
2016-05-18T00:02:05.672Z,11.73
2016-05-18T00:03:05.689Z,11.75
2016-05-18T00:04:05.552Z,11.73
2016-05-18T00:05:19.914Z,11.73
2016-05-18T00:06:05.604Z,11.8
2016-05-18T00:07:05.763Z,11.69
2016-05-18T00:08:05.812Z,11.62
2016-05-18T00:09:05.815Z,11.65
2016-05-18T00:10:05.833Z,11.78
2016-05-18T00:11:05.868Z,11.67
2016-05-18T00:12:20.073Z,11.61
2016-05-18T00:13:05.904Z,11.62
2016-05-18T00:14:05.938Z,11.7
2016-05-18T00:15:05.799Z,11.64
2016-05-18T00:16:20.162Z,11.7
2016-05-18T00:17:05.993Z,11.67
2016-05-18T00:18:05.871Z,11.62
2016-05-18T00:19:06.045Z,11.61
2016-05-18T00:20:06.079Z,11.69
2016-05-18T00:21:20.284Z,11.62
2016-05-18T00:22:06.115Z,11.58
2016-05-18T00:23:06.212Z,11.55
2016-05-18T00:24:06.167Z,11.54
2016-05-18T00:27:06.206Z,11.47
2016-05-18T00:28:20.428Z,11.47
2016-05-18T00:29:20.447Z,11.57
2016-05-18T00:30:20.465Z,11.6
2016-05-18T00:31:06.296Z,11.57
2016-05-18T00:32:06.331Z,11.57
2016-05-18T00:33:06.348Z,11.54
2016-05-18T00:34:06.366Z,11.65
2016-05-18T00:35:06.400Z,11.58
2016-05-18T00:36:20.606Z,11.57
2016-05-18T00:37:06.452Z,11.57
2016-05-18T00:38:06.972Z,11.61
2016-05-18T00:39:06.489Z,11.58
2016-05-18T00:40:06.507Z,11.58
2016-05-18T00:41:20.714Z,11.58
2016-05-18T00:42:06.560Z,11.61
2016-05-18T00:43:06.562Z,11.6
2016-05-18T00:44:06.597Z,11.43
2016-05-18T00:45:06.615Z,11.49
2016-05-18T00:46:06.649Z,11.4
2016-05-18T00:47:06.542Z,11.42
2016-05-18T00:48:06.529Z,11.42
2016-05-18T00:50:06.582Z,11.52
2016-05-18T00:51:06.756Z,11.46
2016-05-18T00:52:06.774Z,11.47
2016-05-18T00:53:06.902Z,11.43
2016-05-18T00:54:06.826Z,11.44
2016-05-18T00:55:06.845Z,11.42
2016-05-18T00:56:06.706Z,11.4
2016-05-18T00:57:06.881Z,11.44
2016-05-18T00:58:06.900Z,11.43
2016-05-18T00:59:06.934Z,11.35
2016-05-18T01:00:06.827Z,11.37
2016-05-18T01:01:06.986Z,11.43
2016-05-18T01:02:06.848Z,11.36
2016-05-18T01:03:07.022Z,11.28
2016-05-18T01:04:07.056Z,11.36
2016-05-18T01:05:07.075Z,11.27
2016-05-18T01:06:21.266Z,11.36
2016-05-18T01:07:07.111Z,11.33
2016-05-18T01:08:21.317Z,11.29
2016-05-18T01:09:07.149Z,11.27
2016-05-18T01:10:07.182Z,11.24
2016-05-18T01:11:07.200Z,11.19
2016-05-18T01:12:07.249Z,11.21
2016-05-18T01:13:07.081Z,11.18
2016-05-18T01:14:07.255Z,11.15
2016-05-18T01:15:07.289Z,11.19
2016-05-18T01:16:07.307Z,11.18
2016-05-18T01:17:07.326Z,11.14
2016-05-18T01:18:07.360Z,11.15
2016-05-18T01:19:07.221Z,11.17
2016-05-18T01:20:07.397Z,11.14
2016-05-18T01:21:07.415Z,11.14
2016-05-18T01:22:07.434Z,11.1
2016-05-18T01:23:07.842Z,11.14
2016-05-18T01:24:21.656Z,11.09
2016-05-18T01:25:07.348Z,11.17
2016-05-18T01:26:07.522Z,11.14
2016-05-18T01:27:07.540Z,11.28
2016-05-18T01:28:07.590Z,11.25
2016-05-18T01:29:07.592Z,11.24
2016-05-18T01:30:07.626Z,11.24
2016-05-18T01:31:21.816Z,11.27
2016-05-18T01:32:07.351Z,11.28
2016-05-18T01:33:07.697Z,11.29
2016-05-18T01:34:21.887Z,11.22
2016-05-18T01:35:07.733Z,11.21
2016-05-18T01:36:07.752Z,11.15
2016-05-18T01:37:07.786Z,11.15
2016-05-18T01:38:07.663Z,11.09
2016-05-18T01:39:07.650Z,11.11
2016-05-18T01:40:22.013Z,11.11
2016-05-18T01:41:07.703Z,11.09
2016-05-18T01:42:07.877Z,11.09
2016-05-18T01:43:07.927Z,11.14
2016-05-18T01:44:07.914Z,11.21
2016-05-18T01:45:07.948Z,11.15
2016-05-18T01:46:07.982Z,11.22
2016-05-18T01:47:07.672Z,11.22
2016-05-18T01:48:08.035Z,11.25
2016-05-18T01:49:08.037Z,11.25
2016-05-18T01:50:08.071Z,11.27
2016-05-18T01:51:08.073Z,11.22
2016-05-18T01:52:07.951Z,11.28
2016-05-18T01:53:08.142Z,11.28
2016-05-18T01:54:08.144Z,11.17
2016-05-18T01:55:08.162Z,11.28
2016-05-18T01:56:22.368Z,11.29
2016-05-18T01:58:08.233Z,11.27
2016-05-18T01:59:08.251Z,11.28
2016-05-18T02:00:08.270Z,11.36
2016-05-18T02:02:08.323Z,11.35
2016-05-18T02:03:08.340Z,11.22
2016-05-18T02:04:08.358Z,11.35
2016-05-18T02:05:08.392Z,11.27
2016-05-18T02:06:22.583Z,11.27
2016-05-18T02:07:08.429Z,11.25
2016-05-18T02:08:08.588Z,11.25
2016-05-18T02:09:08.481Z,11.21
2016-05-18T02:10:08.499Z,11.29
2016-05-18T02:12:08.380Z,11.29
2016-05-18T02:13:08.554Z,11.17
2016-05-18T02:14:08.589Z,11.15
2016-05-18T02:15:08.607Z,11.14
2016-05-18T02:16:08.625Z,11.11
2016-05-18T02:17:08.659Z,11.07
2016-05-18T02:18:08.677Z,11.06
2016-05-18T02:19:08.696Z,11.15
2016-05-18T02:20:08.745Z,11.1
2016-05-18T02:21:08.576Z,11.09
2016-05-18T02:22:08.751Z,11.17
2016-05-18T02:23:22.816Z,11.11
2016-05-18T02:24:08.818Z,10.96
2016-05-18T02:25:08.837Z,11.1
2016-05-18T02:26:08.856Z,11.06
2016-05-18T02:27:08.873Z,11.15
2016-05-18T02:28:08.892Z,11.07
2016-05-18T02:29:08.909Z,10.99
2016-05-18T02:30:08.632Z,11
2016-05-18T02:32:08.997Z,11.07
2016-05-18T02:33:08.999Z,10.97
2016-05-18T02:34:23.205Z,11
2016-05-18T02:36:09.070Z,10.91
2016-05-18T02:37:09.088Z,10.88
2016-05-18T02:38:09.419Z,10.92
2016-05-18T02:39:08.984Z,10.86
2016-05-18T02:40:09.002Z,10.86
2016-05-18T02:41:09.177Z,10.86
2016-05-18T02:43:23.401Z,10.78
2016-05-18T02:44:09.232Z,10.79
2016-05-18T02:45:09.109Z,10.86
2016-05-18T02:46:09.285Z,10.76
2016-05-18T02:47:09.318Z,10.68
2016-05-18T02:48:09.321Z,10.74
2016-05-18T02:49:09.354Z,10.6
2016-05-18T02:50:09.374Z,10.59
2016-05-18T02:51:09.391Z,10.61
2016-05-18T02:52:09.112Z,10.55
2016-05-18T02:53:09.444Z,10.48
2016-05-18T02:54:09.306Z,10.51
2016-05-18T02:55:09.479Z,10.48
2016-05-18T02:56:09.514Z,10.51
2016-05-18T02:57:09.532Z,10.53
2016-05-18T02:58:09.567Z,10.6
2016-05-18T02:59:23.756Z,10.59
2016-05-18T03:00:09.587Z,10.63
2016-05-18T03:01:09.606Z,10.64
2016-05-18T03:02:09.639Z,10.55
2016-05-18T03:03:09.658Z,10.63
2016-05-18T03:04:09.676Z,10.52
2016-05-18T03:05:09.711Z,10.51
2016-05-18T03:06:09.728Z,10.44
2016-05-18T03:07:09.747Z,10.47
2016-05-18T03:08:09.796Z,10.47
2016-05-18T03:09:09.642Z,10.48
2016-05-18T03:10:23.989Z,10.55
2016-05-18T03:11:09.679Z,10.68
2016-05-18T03:12:09.855Z,10.78
2016-05-18T03:13:09.872Z,10.7
2016-05-18T03:14:09.890Z,10.73
2016-05-18T03:15:24.096Z,10.79
2016-05-18T03:16:09.786Z,10.74
2016-05-18T03:17:09.961Z,10.74
2016-05-18T03:18:09.838Z,10.79
2016-05-18T03:19:24.030Z,10.68
2016-05-18T03:20:10.032Z,10.67
2016-05-18T03:21:10.049Z,10.48
2016-05-18T03:22:09.927Z,10.59
2016-05-18T03:24:10.355Z,10.53
2016-05-18T03:25:10.139Z,10.56
2016-05-18T03:26:24.345Z,10.53
2016-05-18T03:27:24.363Z,10.59
2016-05-18T03:28:10.209Z,10.47
2016-05-18T03:29:10.228Z,10.42
2016-05-18T03:30:10.246Z,10.47
2016-05-18T03:31:24.452Z,10.33
2016-05-18T03:32:10.142Z,10.4
2016-05-18T03:33:10.317Z,10.4
2016-05-18T03:34:10.194Z,10.33
2016-05-18T03:35:10.353Z,10.15
2016-05-18T03:36:10.372Z,10.3
2016-05-18T03:37:10.389Z,10.2
2016-05-18T03:38:10.753Z,10.29
2016-05-18T03:39:10.441Z,10.25
2016-05-18T03:40:24.647Z,10.26
2016-05-18T03:41:10.494Z,10.27
2016-05-18T03:42:10.513Z,10.25
2016-05-18T03:43:24.703Z,10.29
2016-05-18T03:44:10.566Z,10.23
2016-05-18T03:45:10.568Z,10.29
2016-05-18T03:46:24.774Z,10.27
2016-05-18T03:47:10.605Z,10.23
2016-05-18T03:48:10.638Z,10.27
2016-05-18T03:49:10.657Z,10.32
2016-05-18T03:50:10.535Z,10.29
2016-05-18T03:51:10.693Z,10.3
2016-05-18T03:52:10.571Z,10.3
2016-05-18T03:53:10.776Z,10.3
2016-05-18T03:54:24.952Z,10.32
2016-05-18T03:55:10.798Z,10.36
2016-05-18T03:56:10.801Z,10.44
2016-05-18T03:57:10.851Z,10.45
2016-05-18T03:58:10.853Z,10.48
2016-05-18T03:59:10.715Z,10.48
2016-05-18T04:01:10.923Z,10.55
2016-05-18T04:02:10.942Z,10.59
2016-05-18T04:03:10.960Z,10.48
2016-05-18T04:04:10.994Z,10.47
2016-05-18T04:06:11.015Z,10.6
2016-05-18T04:07:11.048Z,10.63
2016-05-18T04:09:10.945Z,10.76
2016-05-18T04:10:10.947Z,10.82
2016-05-18T04:11:11.138Z,10.68
2016-05-18T04:12:11.000Z,10.76
2016-05-18T04:13:25.362Z,10.71
2016-05-18T04:14:11.192Z,10.81
2016-05-18T04:15:11.055Z,10.85
2016-05-18T04:16:11.244Z,10.91
2016-05-18T04:17:11.263Z,10.86
2016-05-18T04:18:25.469Z,10.89
2016-05-18T04:19:11.159Z,10.89
2016-05-18T04:20:11.334Z,10.7
2016-05-18T04:21:11.196Z,10.88
2016-05-18T04:22:11.371Z,10.84
2016-05-18T04:23:25.873Z,10.91
2016-05-18T04:24:11.423Z,10.84
2016-05-18T04:25:11.441Z,10.84
2016-05-18T04:26:11.459Z,10.88
2016-05-18T04:27:11.318Z,10.97
2016-05-18T04:28:11.512Z,10.96
2016-05-18T04:29:11.529Z,10.89
2016-05-18T04:30:11.389Z,11.03
2016-05-18T04:31:11.564Z,11.02
2016-05-18T04:32:11.581Z,11.17
2016-05-18T04:33:11.459Z,11.17
2016-05-18T04:34:25.825Z,11.25
2016-05-18T04:35:11.653Z,11.25
2016-05-18T04:36:11.671Z,11.24
2016-05-18T04:37:11.706Z,11.28
2016-05-18T04:38:26.445Z,11.33
2016-05-18T04:39:11.742Z,11.24
2016-05-18T04:40:11.776Z,11.29
2016-05-18T04:41:11.653Z,11.39
2016-05-18T04:43:26.020Z,11.4
2016-05-18T04:44:11.849Z,11.33
2016-05-18T04:45:11.883Z,11.42
2016-05-18T04:46:11.901Z,11.36
2016-05-18T04:47:11.747Z,11.46
2016-05-18T04:48:11.797Z,11.47
2016-05-18T04:50:26.164Z,11.61
2016-05-18T04:51:12.008Z,11.58
2016-05-18T04:53:12.061Z,11.6
2016-05-18T04:54:12.079Z,11.54
2016-05-18T04:56:12.115Z,11.67
2016-05-18T04:57:12.134Z,11.69
2016-05-18T04:58:12.167Z,11.72
2016-05-18T04:59:12.186Z,11.73
2016-05-18T05:00:26.395Z,11.73
2016-05-18T05:01:12.223Z,11.79
2016-05-18T05:02:12.085Z,11.75
2016-05-18T05:03:12.275Z,11.82
2016-05-18T05:04:12.293Z,11.79
2016-05-18T05:05:12.311Z,11.9
2016-05-18T05:06:26.520Z,11.98
2016-05-18T05:07:12.051Z,12.01
2016-05-18T05:08:12.225Z,12.04
2016-05-18T05:09:12.400Z,11.96
2016-05-18T05:10:12.420Z,11.94
2016-05-18T05:11:12.452Z,11.98
2016-05-18T05:13:26.680Z,12.01
2016-05-18T05:14:12.523Z,11.85
2016-05-18T05:16:12.560Z,11.72
2016-05-18T05:17:12.578Z,11.7
2016-05-18T05:18:12.441Z,11.69
2016-05-18T05:19:12.615Z,11.7
2016-05-18T05:20:12.649Z,11.67
2016-05-18T05:21:26.857Z,11.73
2016-05-18T05:23:12.766Z,11.98
2016-05-18T05:26:12.618Z,13.49
2016-05-18T05:27:26.826Z,14.55
2016-05-18T05:28:12.826Z,15.25
2016-05-18T05:29:12.846Z,15.9
2016-05-18T05:30:12.551Z,16.28
2016-05-18T05:32:12.915Z,15.67
2016-05-18T05:33:12.949Z,15.32
2016-05-18T05:35:12.986Z,14.96
2016-05-18T05:36:13.004Z,15.28
2016-05-18T05:37:12.881Z,15.56
2016-05-18T05:38:13.479Z,15.56
2016-05-18T05:39:13.075Z,15.6
2016-05-18T05:40:13.109Z,15.56
2016-05-18T05:41:13.128Z,15.69
2016-05-18T05:42:13.145Z,15.74
2016-05-18T05:43:13.179Z,15.69
2016-05-18T05:44:27.388Z,15.92
2016-05-18T05:45:13.216Z,16.05
2016-05-18T05:47:13.283Z,16.01
2016-05-18T05:48:27.477Z,15.72
2016-05-18T05:49:13.164Z,15.69
2016-05-18T05:50:13.338Z,15.82
2016-05-18T05:51:13.372Z,16.04
2016-05-18T05:52:13.391Z,15.96
2016-05-18T05:54:13.443Z,17.16
2016-05-18T05:55:13.461Z,17.54
2016-05-18T05:56:13.480Z,18.05
2016-05-18T05:57:13.358Z,18.21
2016-05-18T05:58:13.533Z,17.97
2016-05-18T05:59:13.566Z,17.64
2016-05-18T06:00:13.584Z,17.68
2016-05-18T06:01:13.618Z,18.1
2016-05-18T06:02:13.637Z,18.57
2016-05-18T06:03:13.655Z,18.66
2016-05-18T06:04:13.689Z,19.18
2016-05-18T06:05:13.551Z,19.68
2016-05-18T06:06:13.585Z,19.56
2016-05-18T06:07:13.759Z,19.87
2016-05-18T06:08:13.637Z,19.68
2016-05-18T06:09:27.845Z,19.18
2016-05-18T06:10:13.689Z,18.76
2016-05-18T06:11:13.864Z,18.54
2016-05-18T06:12:13.882Z,18.39
2016-05-18T06:13:13.916Z,17.92
2016-05-18T06:14:13.934Z,17.86
2016-05-18T06:15:13.968Z,17.93
2016-05-18T06:16:13.986Z,17.87
2016-05-18T06:17:14.021Z,17.92
2016-05-18T06:18:14.039Z,18.02
2016-05-18T06:19:14.072Z,18.02
2016-05-18T06:20:13.950Z,17.9
2016-05-18T06:21:13.969Z,17.84
2016-05-18T06:22:14.144Z,18.44
2016-05-18T06:23:14.802Z,18.82
2016-05-18T06:24:14.196Z,18.98
2016-05-18T06:25:28.404Z,19.22
2016-05-18T06:26:14.248Z,19.54
2016-05-18T06:27:14.282Z,20.13
2016-05-18T06:28:14.300Z,20.38
2016-05-18T06:29:14.318Z,20.38
2016-05-18T06:30:14.352Z,20.62
2016-05-18T06:31:14.371Z,21.01
2016-05-18T06:32:14.248Z,21.19
2016-05-18T06:33:28.457Z,21.42
2016-05-18T06:34:14.473Z,21.42
2016-05-18T06:35:14.491Z,21.67
2016-05-18T06:36:14.526Z,22.1
2016-05-18T06:37:14.387Z,22.37
2016-05-18T06:38:14.421Z,22.27
2016-05-18T06:39:14.595Z,22.6
2016-05-18T06:40:14.629Z,22.73
2016-05-18T06:41:28.838Z,22.72
2016-05-18T06:42:14.682Z,22.94
2016-05-18T06:43:14.559Z,23.2
2016-05-18T06:44:14.577Z,23.2
2016-05-18T06:46:14.802Z,23.88
2016-05-18T06:47:14.820Z,24
2016-05-18T06:48:14.853Z,24.31
2016-05-18T06:49:14.889Z,24.46
2016-05-18T06:50:14.922Z,24.67
2016-05-18T06:51:14.941Z,25
2016-05-18T06:52:14.975Z,24.65
2016-05-18T06:54:15.042Z,25.06
2016-05-18T06:55:15.077Z,25.39
2016-05-18T06:56:29.285Z,25.69
2016-05-18T06:57:15.128Z,25.5
2016-05-18T06:58:15.163Z,25.57
2016-05-18T06:59:29.386Z,25.57
2016-05-18T07:00:15.230Z,25.65
2016-05-18T07:01:15.280Z,25.87
2016-05-18T07:02:15.298Z,25.7
2016-05-18T07:05:15.368Z,26.6
2016-05-18T07:06:15.418Z,26.47
2016-05-18T07:07:15.296Z,26.23
2016-05-18T07:08:16.157Z,26.06
2016-05-18T07:09:15.535Z,26.05
2016-05-18T07:10:15.538Z,26.07
2016-05-18T07:12:15.606Z,26.69
2016-05-18T07:13:15.656Z,27
2016-05-18T07:14:15.673Z,27.07
2016-05-18T07:15:15.709Z,27.19
2016-05-18T07:16:15.726Z,26.91
2016-05-18T07:17:15.761Z,26.44
2016-05-18T07:18:15.653Z,26.55
2016-05-18T07:19:15.828Z,26.94
2016-05-18T07:20:30.052Z,26.92
2016-05-18T07:21:15.896Z,26.99
2016-05-18T07:22:15.774Z,26.95
2016-05-18T07:23:15.980Z,26.91
2016-05-18T07:24:15.997Z,26.8
2016-05-18T07:25:16.219Z,26.63
2016-05-18T07:27:16.100Z,27.04
2016-05-18T07:28:30.418Z,26.69
2016-05-18T07:29:16.168Z,26.45
2016-05-18T07:30:16.202Z,26.18
2016-05-18T07:31:16.236Z,26.77
2016-05-18T07:32:16.130Z,27.43
2016-05-18T07:33:16.304Z,27.41
2016-05-18T07:34:16.337Z,27.99
2016-05-18T07:35:16.215Z,27.7
2016-05-18T07:36:16.437Z,27.6
2016-05-18T07:37:16.440Z,27.21
2016-05-18T07:38:16.598Z,27.55
2016-05-18T07:39:16.507Z,27.87
2016-05-18T07:40:16.540Z,27.65
2016-05-18T07:41:16.419Z,27.87
2016-05-18T07:42:16.609Z,27.79
2016-05-18T07:43:16.643Z,28.12
2016-05-18T07:44:30.945Z,28.12
2016-05-18T07:45:16.711Z,27.67
2016-05-18T07:47:16.982Z,28.09
2016-05-18T07:48:16.812Z,27.66
2016-05-18T07:49:16.847Z,26.92
2016-05-18T07:50:16.880Z,27.17
2016-05-18T07:52:16.948Z,27.24
2016-05-18T07:53:16.825Z,27.55
2016-05-18T07:54:17.016Z,27.51
2016-05-18T07:55:17.050Z,27.66
2016-05-18T07:56:16.944Z,27.82
2016-05-18T07:57:17.118Z,27.87
2016-05-18T07:58:17.183Z,28.04
2016-05-18T07:59:17.029Z,27.77
2016-05-18T08:00:31.411Z,27.88
2016-05-18T08:01:17.270Z,28.04
2016-05-18T08:02:17.288Z,27.94
2016-05-18T08:03:17.322Z,27.96
2016-05-18T08:04:17.199Z,28.31
2016-05-18T08:05:17.233Z,28.18
2016-05-18T08:06:17.439Z,27.77
2016-05-18T08:07:17.473Z,28.12
2016-05-18T08:08:17.694Z,28.31
2016-05-18T08:09:17.541Z,28.43
2016-05-18T08:10:17.575Z,28.24
2016-05-18T08:11:31.784Z,27.94
2016-05-18T08:12:17.643Z,28.02
2016-05-18T08:13:31.851Z,28.43
2016-05-18T08:14:17.710Z,28.78
2016-05-18T08:15:17.745Z,28.48
2016-05-18T08:16:31.968Z,28.59
2016-05-18T08:17:17.812Z,28.52
2016-05-18T08:18:17.877Z,28.54
2016-05-18T08:21:17.948Z,29.15
2016-05-18T08:22:17.826Z,29.27
2016-05-18T08:23:17.532Z,28.77
2016-05-18T08:24:17.769Z,28.9
2016-05-18T08:25:17.194Z,29.3
2016-05-18T08:26:17.228Z,28.81
2016-05-18T08:27:17.277Z,28.8
2016-05-18T08:28:17.321Z,28.89
2016-05-18T08:29:17.398Z,29.15
2016-05-18T08:30:17.458Z,29.11
2016-05-18T08:33:17.695Z,27.47
2016-05-18T08:34:17.744Z,26.8
2016-05-18T08:35:31.999Z,27.47
2016-05-18T08:36:17.843Z,27.66
2016-05-18T08:37:17.893Z,27.79
2016-05-18T08:38:17.939Z,27.99
2016-05-18T08:39:17.979Z,27.51
2016-05-18T08:40:18.018Z,27.69
2016-05-18T08:41:18.057Z,28.12
2016-05-18T08:43:18.151Z,28.36
2016-05-18T08:44:18.172Z,27.84
2016-05-18T08:45:18.224Z,28
2016-05-18T08:47:18.296Z,27.97
2016-05-18T08:49:18.367Z,27.82
2016-05-18T08:50:18.245Z,28.04
2016-05-18T08:51:32.627Z,28.41
2016-05-18T08:52:18.471Z,28.67
2016-05-18T08:53:18.505Z,29.09
2016-05-18T08:54:18.539Z,29.19
2016-05-18T08:55:18.573Z,29.11
2016-05-18T08:56:18.608Z,28.93
2016-05-18T08:57:18.641Z,28.96
2016-05-18T08:59:18.708Z,29.21
2016-05-18T09:00:18.743Z,29.24
2016-05-18T09:01:18.777Z,29.04
2016-05-18T09:02:18.810Z,29.04
2016-05-18T09:03:18.844Z,29.11
2016-05-18T09:04:18.879Z,28.93
2016-05-18T09:05:18.913Z,29.23
2016-05-18T09:06:18.946Z,28.9
2016-05-18T09:07:33.170Z,28.66
2016-05-18T09:08:19.029Z,29.02
2016-05-18T09:09:19.048Z,28.71
2016-05-18T09:10:19.098Z,28.71
2016-05-18T09:11:19.116Z,29.04
2016-05-18T09:12:19.165Z,28.88
2016-05-18T09:13:19.199Z,27.6
2016-05-18T09:14:19.234Z,27.27
2016-05-18T09:15:19.267Z,26.6
2016-05-18T09:16:19.301Z,26.44
2016-05-18T09:17:19.320Z,26.55
2016-05-18T09:18:19.354Z,26.92
2016-05-18T09:19:19.403Z,27.31
2016-05-18T09:20:19.437Z,27.39
2016-05-18T09:21:19.470Z,27.03
2016-05-18T09:22:19.505Z,27.09
2016-05-18T09:23:33.714Z,-7.49
2016-05-18T09:24:19.589Z,26.87
2016-05-18T09:25:19.606Z,26.67
2016-05-18T09:26:19.625Z,27
2016-05-18T09:27:19.659Z,27.74
2016-05-18T09:28:19.552Z,27.85
2016-05-18T09:29:19.727Z,28.02
2016-05-18T09:30:19.760Z,27.55
2016-05-18T09:32:19.844Z,27.18
2016-05-18T09:33:19.863Z,27.07
2016-05-18T09:34:19.896Z,26.87
2016-05-18T09:35:19.930Z,27.18
2016-05-18T09:36:19.965Z,26.97
2016-05-18T09:37:20.013Z,27.24
2016-05-18T09:38:34.238Z,27.24
2016-05-18T09:39:34.257Z,27.24
2016-05-18T09:40:20.101Z,27.25
2016-05-18T09:41:20.134Z,27.59
2016-05-18T09:42:20.184Z,27.39
2016-05-18T09:43:20.201Z,27.19
2016-05-18T09:44:20.236Z,27.4
2016-05-18T09:45:20.270Z,26.8
2016-05-18T09:46:20.304Z,26.29
2016-05-18T09:47:20.337Z,26.18
2016-05-18T09:48:20.356Z,26.43
2016-05-18T09:49:20.406Z,26.66
2016-05-18T09:50:20.423Z,27.12
2016-05-18T09:51:20.458Z,26.89
2016-05-18T09:52:20.508Z,26.47
2016-05-18T09:53:21.011Z,25.73
2016-05-18T09:54:20.575Z,25.65
2016-05-18T09:55:21.484Z,25.45
2016-05-18T09:56:20.628Z,25.03
2016-05-18T09:57:20.662Z,25.42
2016-05-18T09:58:21.602Z,25.62
2016-05-18T09:59:20.730Z,25.82
2016-05-18T10:00:21.654Z,26.36
2016-05-18T10:01:21.672Z,26.45
2016-05-18T10:02:21.706Z,26.52
2016-05-18T10:03:21.756Z,26.52
2016-05-18T10:04:20.883Z,26.81
2016-05-18T10:05:20.761Z,26.94
2016-05-18T10:06:21.842Z,27.46
2016-05-18T10:07:36.051Z,27.75
2016-05-18T10:08:21.019Z,27.66
2016-05-18T10:09:21.960Z,26.94
2016-05-18T10:10:35.277Z,26.7
2016-05-18T10:11:21.105Z,26.58
2016-05-18T10:12:21.140Z,26.32
2016-05-18T10:13:21.173Z,26.52
2016-05-18T10:14:21.942Z,26.7
2016-05-18T10:15:21.241Z,26.91
2016-05-18T10:16:22.165Z,26.44
2016-05-18T10:17:21.293Z,26.62
2016-05-18T10:18:21.187Z,26.7
2016-05-18T10:19:22.268Z,25.61
2016-05-18T10:20:21.395Z,25.35
2016-05-18T10:21:21.429Z,24.93
2016-05-18T10:22:21.464Z,24.55
2016-05-18T10:23:21.653Z,24
2016-05-18T10:24:21.531Z,24
2016-05-18T10:25:22.456Z,24.52
2016-05-18T10:26:35.773Z,25.21
2016-05-18T10:27:22.508Z,25.4
2016-05-18T10:28:22.542Z,25.21
2016-05-18T10:29:22.575Z,24.85
2016-05-18T10:30:22.610Z,24.96
2016-05-18T10:31:22.644Z,25.33
2016-05-18T10:32:22.678Z,25.18
2016-05-18T10:33:22.696Z,25.18
2016-05-18T10:34:36.920Z,25.03
2016-05-18T10:35:22.749Z,24.69
2016-05-18T10:37:21.941Z,24.99
2016-05-18T10:38:22.896Z,24.9
2016-05-18T10:39:21.993Z,24.78
2016-05-18T10:40:21.871Z,24.91
2016-05-18T10:41:22.061Z,25.02
2016-05-18T10:44:23.038Z,25.08
2016-05-18T10:45:23.072Z,24.91
2016-05-18T10:46:23.121Z,24.58
2016-05-18T10:47:22.968Z,23.7
2016-05-18T10:48:23.159Z,23.63
2016-05-18T10:49:23.193Z,23.7
2016-05-18T10:50:23.070Z,23.93
2016-05-18T10:51:23.275Z,24.28
2016-05-18T10:52:23.279Z,24.35
2016-05-18T10:53:23.453Z,24.34
2016-05-18T10:54:23.346Z,24.47
2016-05-18T10:55:23.381Z,24.83
2016-05-18T10:56:23.414Z,24.43
2016-05-18T10:57:23.448Z,24.53
2016-05-18T10:58:23.482Z,24.91
2016-05-18T10:59:23.500Z,25.08
2016-05-18T11:00:23.534Z,24.95
2016-05-18T11:01:23.569Z,25
2016-05-18T11:02:37.777Z,25.33
2016-05-18T11:03:23.636Z,25.55
2016-05-18T11:04:23.655Z,25.69
2016-05-18T11:05:23.688Z,25.91
2016-05-18T11:06:23.722Z,25.94
2016-05-18T11:07:23.741Z,25.72
2016-05-18T11:08:23.947Z,25.43
2016-05-18T11:09:23.808Z,25.24
2016-05-18T11:10:23.826Z,25.38
2016-05-18T11:11:38.051Z,25.76
2016-05-18T11:12:23.910Z,25.91
2016-05-18T11:13:23.913Z,25.75
2016-05-18T11:14:38.152Z,25.32
2016-05-18T11:15:23.981Z,24.91
2016-05-18T11:16:24.029Z,25.08
2016-05-18T11:17:24.049Z,24.46
2016-05-18T11:19:24.101Z,23.98
2016-05-18T11:20:23.978Z,24.4
2016-05-18T11:21:23.278Z,24.65
2016-05-18T11:22:24.187Z,24.76
2016-05-18T11:23:24.284Z,24.88
2016-05-18T11:24:24.255Z,25.28
2016-05-18T11:25:24.289Z,25.36
2016-05-18T11:26:23.417Z,25.45
2016-05-18T11:28:23.485Z,24.98
2016-05-18T11:29:23.503Z,25.08
2016-05-18T11:30:24.130Z,24.8
2016-05-18T11:31:24.477Z,24.83
2016-05-18T11:32:24.495Z,24.84
2016-05-18T11:33:24.529Z,24.62
2016-05-18T11:34:24.391Z,24.71
2016-05-18T11:35:24.581Z,24.42
2016-05-18T11:36:24.616Z,24.13
2016-05-18T11:37:23.743Z,23.91
2016-05-18T11:38:23.777Z,23.7
2016-05-18T11:39:23.811Z,23.85
2016-05-18T11:41:24.769Z,23.66
2016-05-18T11:42:38.978Z,23.48
2016-05-18T11:43:24.822Z,23.75
2016-05-18T11:44:24.840Z,23.51
2016-05-18T11:45:24.874Z,23.42
2016-05-18T11:47:24.926Z,23.94
2016-05-18T11:48:24.960Z,24.21
2016-05-18T11:49:24.993Z,24.45
2016-05-18T11:50:25.029Z,24.31
2016-05-18T11:51:24.890Z,24.18
2016-05-18T11:52:25.095Z,24.12
2016-05-18T11:53:25.130Z,24.27
2016-05-18T11:54:25.132Z,24.46
2016-05-18T11:55:25.010Z,24.42
2016-05-18T11:56:25.200Z,23.72
2016-05-18T11:57:39.425Z,23.04
2016-05-18T11:58:39.442Z,22.95
2016-05-18T12:01:25.339Z,23.33
2016-05-18T12:02:25.372Z,23.25
2016-05-18T12:03:24.360Z,23.33
2016-05-18T12:05:24.569Z,23.6
2016-05-18T12:06:24.602Z,23.43
2016-05-18T12:07:39.717Z,23.69
2016-05-18T12:09:25.579Z,23.47
2016-05-18T12:10:25.285Z,23.31
2016-05-18T12:11:25.585Z,23.23
2016-05-18T12:12:24.760Z,23.28
2016-05-18T12:13:25.683Z,23.43
2016-05-18T12:14:24.874Z,23.66
2016-05-18T12:15:25.751Z,23.65
2016-05-18T12:16:25.770Z,23.5
2016-05-18T12:17:25.804Z,23.07
2016-05-18T12:18:25.837Z,23.07
2016-05-18T12:19:24.966Z,23.04
2016-05-18T12:20:25.890Z,23.22
2016-05-18T12:22:24.912Z,22.55
2016-05-18T12:23:25.820Z,22.72
2016-05-18T12:24:26.072Z,22.97
2016-05-18T12:25:25.138Z,23.09
2016-05-18T12:26:40.237Z,23.48
2016-05-18T12:27:26.081Z,23.55
2016-05-18T12:28:26.114Z,23.78
2016-05-18T12:29:26.164Z,23.88
2016-05-18T12:30:26.167Z,23.68
2016-05-18T12:31:26.200Z,23
2016-05-18T12:32:26.234Z,22.68
2016-05-18T12:33:26.269Z,22.91
2016-05-18T12:34:26.286Z,22.95
2016-05-18T12:35:26.165Z,23.23
2016-05-18T12:36:26.339Z,23.39
2016-05-18T12:37:26.216Z,23.15
2016-05-18T12:38:26.408Z,22.94
2016-05-18T12:39:40.615Z,22.55
2016-05-18T12:40:26.459Z,22.42
2016-05-18T12:41:26.493Z,22.24
2016-05-18T12:42:26.511Z,22.18
2016-05-18T12:44:26.423Z,22.2
2016-05-18T12:45:26.598Z,22.07
2016-05-18T12:46:40.650Z,22.35
2016-05-18T12:47:26.510Z,22.31
2016-05-18T12:48:26.684Z,22.36
2016-05-18T12:49:26.545Z,22.27
2016-05-18T12:50:26.737Z,22.24
2016-05-18T12:51:26.770Z,22.07
2016-05-18T12:53:26.854Z,21.98
2016-05-18T12:54:41.046Z,21.8
2016-05-18T12:55:41.065Z,21.65
2016-05-18T12:56:26.909Z,21.75
2016-05-18T12:57:26.927Z,21.5
2016-05-18T12:58:26.961Z,21.4
2016-05-18T12:59:26.823Z,21.42
2016-05-18T13:00:26.856Z,21.46
2016-05-18T13:01:27.062Z,21.68
2016-05-18T13:02:41.256Z,21.61
2016-05-18T13:03:27.100Z,21.68
2016-05-18T13:04:27.117Z,21.68
2016-05-18T13:05:27.152Z,21.42
2016-05-18T13:06:27.030Z,21.49
2016-05-18T13:07:27.204Z,21.32
2016-05-18T13:08:27.878Z,21.31
2016-05-18T13:09:27.288Z,21.49
2016-05-18T13:10:27.291Z,21.5
2016-05-18T13:11:27.308Z,21.5
2016-05-18T13:12:27.342Z,21.65
2016-05-18T13:13:41.551Z,21.5
2016-05-18T13:14:27.410Z,21.37
2016-05-18T13:15:27.429Z,21.49
2016-05-18T13:16:27.463Z,21.61
2016-05-18T13:17:41.671Z,21.42
2016-05-18T13:18:27.515Z,21.49
2016-05-18T13:20:27.567Z,21.37
2016-05-18T13:21:27.585Z,21.21
2016-05-18T13:22:27.619Z,21.14
2016-05-18T13:23:34.293Z,21.25
2016-05-18T13:24:27.765Z,21.03
2016-05-18T13:25:27.705Z,20.95
2016-05-18T13:26:27.567Z,20.91
2016-05-18T13:27:27.757Z,20.98
2016-05-18T13:28:27.776Z,20.85
2016-05-18T13:29:27.809Z,20.59
2016-05-18T13:30:27.844Z,20.7
2016-05-18T13:31:27.861Z,20.77
2016-05-18T13:32:27.896Z,20.67
2016-05-18T13:33:27.914Z,20.76
2016-05-18T13:34:27.964Z,20.85
2016-05-18T13:35:27.811Z,20.85
2016-05-18T13:36:28.001Z,20.66
2016-05-18T13:37:28.019Z,20.7
2016-05-18T13:38:42.243Z,20.89
2016-05-18T13:39:28.071Z,20.95
2016-05-18T13:40:27.949Z,21.19
2016-05-18T13:41:28.139Z,21.16
2016-05-18T13:43:28.191Z,20.73
2016-05-18T13:44:28.210Z,20.76
2016-05-18T13:45:28.072Z,20.73
2016-05-18T13:46:28.105Z,20.84
2016-05-18T13:47:28.296Z,20.85
2016-05-18T13:48:42.504Z,20.88
2016-05-18T13:49:28.348Z,20.91
2016-05-18T13:50:28.366Z,21.09
2016-05-18T13:51:28.401Z,21.25
2016-05-18T13:52:28.418Z,21.31
2016-05-18T13:53:29.156Z,21.34
2016-05-18T13:54:28.329Z,21.37
2016-05-18T13:55:28.505Z,21.38